EDT,Max TemperatureF,Mean TemperatureF,Min TemperatureF,Max Dew PointF,MeanDew PointF,Min DewpointF,Max Humidity, Mean Humidity, Min Humidity, Max Sea Level PressureIn, Mean Sea Level PressureIn, Min Sea Level PressureIn, Max VisibilityMiles, Mean VisibilityMiles, Min VisibilityMiles, Max Wind SpeedMPH, Mean Wind SpeedMPH, Max Gust SpeedMPH,PrecipitationIn, CloudCover, Events, WindDirDegrees
2013-8-1,80,68,54,64,61,52,100,82,47,29.94,29.91,29.88,10,8,4,13,6,16,0.02,5,Rain-Thunderstorm,298
2013-8-2,73,60,48,65,56,46,100,87,61,29.94,29.91,29.86,10,7,1,20,4,25,0.00,2,Rain,244
2013-8-3,81,66,53,63,56,49,100,76,35,30.05,29.97,29.92,10,6,0,12,3,20,0.01,1,Fog,329
2013-8-4,75,65,55,54,52,50,87,61,43,30.16,30.12,30.06,10,10,10,13,6,29,0.00,2,,3
2013-8-5,72,60,48,57,53,48,100,72,49,30.13,30.06,29.97,10,10,9,8,1,,0.00,3,,168
2013-8-6,79,70,63,68,62,57,93,79,64,29.97,29.93,29.90,10,10,7,12,5,,0.05,6,Rain,190
2013-8-7,84,73,62,71,66,62,100,90,58,29.93,29.89,29.84,10,5,0,15,3,22,0.12,4,Fog-Rain-Thunderstorm,205
2013-8-8,78,72,66,68,63,59,96,76,60,30.01,29.97,29.90,10,10,5,13,7,,0.00,5,,28
2013-8-9,82,70,59,62,56,49,90,64,38,30.01,29.97,29.95,10,10,10,12,4,16,0.00,0,,299
2013-8-10,78,68,59,61,59,56,96,72,52,30.13,30.09,30.03,10,10,10,8,4,81,0.00,4,,55
2013-8-11,81,66,51,61,55,51,100,82,42,30.13,30.11,30.04,10,6,0,12,1,,0.00,2,Fog,270
2013-8-12,73,67,61,67,63,58,100,93,71,30.06,29.97,29.86,10,5,0,18,3,30,1.54,8,Fog-Rain-Thunderstorm,230
2013-8-13,69,63,55,64,52,43,97,71,45,30.07,29.95,29.83,10,10,6,14,9,23,0.00,5,,338
2013-8-14,72,60,48,51,47,44,97,68,42,30.17,30.14,30.08,10,10,10,13,6,,0.00,1,,336
2013-8-15,73,58,44,55,48,44,100,82,44,30.19,30.15,30.11,10,6,0,9,2,,0.00,1,Fog,247
2013-8-16,79,63,48,57,51,46,100,80,39,30.21,30.16,30.13,10,6,0,7,1,,0.01,1,Fog,21
2013-8-17,79,63,48,59,53,48,100,86,42,30.27,30.23,30.20,10,5,0,9,1,,0.00,0,Fog,118
2013-8-18,81,66,53,65,57,54,100,87,45,30.22,30.19,30.12,10,5,0,8,1,,0.00,1,Fog,90
2013-8-19,82,66,50,63,55,50,100,89,42,30.14,30.11,30.05,10,4,0,13,1,16,0.01,0,Fog,276
2013-8-20,84,68,53,66,59,54,100,88,49,30.15,30.11,30.08,10,4,0,9,1,28,0.00,1,Fog,228
2013-8-21,84,70,57,69,62,57,100,90,53,30.16,30.11,30.00,10,4,0,18,1,84,0.00,1,Fog,213
2013-8-22,81,74,68,69,66,64,93,79,60,30.05,30.02,29.96,10,9,6,12,6,,0.00,2,Rain,288
2013-8-23,82,71,61,67,54,45,87,57,28,30.20,30.12,30.05,10,10,10,9,5,,0.00,0,,31
2013-8-24,81,66,51,64,55,51,100,77,46,30.32,30.28,30.21,10,8,0,8,1,,0.00,1,Fog,132
2013-8-25,86,68,51,64,57,50,100,83,44,30.30,30.26,30.17,10,5,0,13,2,81,0.01,0,Fog,237
2013-8-26,89,74,61,71,66,59,100,76,54,30.17,30.07,29.99,10,8,0,17,6,22,0.00,0,Fog,249
2013-8-27,84,76,69,76,72,68,100,90,74,30.03,29.96,29.86,10,5,0,18,4,25,0.58,3,Fog-Rain-Thunderstorm,236
2013-8-28,84,76,71,75,72,68,100,86,67,30.00,29.87,29.79,10,9,2,12,8,,0.09,6,Rain-Thunderstorm,334
2013-8-29,86,74,64,72,68,64,97,80,57,30.08,30.04,30.01,10,9,5,7,3,,0.01,2,,63
2013-8-30,87,72,59,73,66,59,100,86,53,30.02,29.92,29.76,10,5,0,15,2,23,0.17,2,Fog-Rain-Thunderstorm,233
2013-8-31,82,75,68,73,69,65,96,83,56,29.86,29.80,29.76,10,9,6,9,4,,0.01,7,Rain-Thunderstorm,342